• Join FlightAware (Why Join?)
  • Login
  • US Flag 
03:56AM EDT


 

Airport Tracker/Info


-or-


 

Live Flight TrackerFlight Track Log ✈ SKW5625 ✈ 17-Jul-2013 ✈ KMFR - KSFO

Flight Track Log - Related Links

Times and Time Zones

All times are in EDT time to prevent confusion due to time zone crossing. See the SKW5625 flight status page for this flight to view local times or setup timezone preferences in your user account.

Time Position Orientation Groundspeed Altitude Reporting Facility
EDT Latitude Longitude Course Direction KTS MPH feet Rate Location/Type
03:37PM 42.3867 -122.8806 296° West 133 153 2,000  Level Seattle Center
03:38PM 42.4019 -122.9233 296° West 156 180 3,800 1,620 Climbing Seattle Center
03:39PM 42.3533 -122.9122 170° South 179 206 5,400 1,560 Climbing Seattle Center
03:40PM 42.3025 -122.9067 175° South 194 223 7,000 1,500 Climbing Seattle Center
03:41PM 42.2486 -122.9078 181° South 196 226 8,500 1,560 Climbing Seattle Center
03:42PM 42.1944 -122.9053 178° South 197 227 10,200 1,440 Climbing Seattle Center
03:43PM 42.1397 -122.9053 180° South 197 227 11,500 1,080 Climbing Seattle Center
03:44PM 42.0828 -122.9083 182° South 203 234 12,500 1,020 Climbing Seattle Center
03:45PM 42.0097 -122.9072 179° South 217 250 13,700 1,020 Climbing Seattle Center
03:46PM 41.9492 -122.9050 178° South 219 252 14,700 780 Climbing Seattle Center
03:47PM 41.8908 -122.9044 180° South 213 245 15,400 720 Climbing Seattle Center
03:48PM 41.8269 -122.9050 180° South 228 262 16,200 720 Climbing Seattle Center
03:49PM 41.7639 -122.9022 178° South 228 262 16,900 780 Climbing Seattle Center
03:50PM 41.7025 -122.9025 180° South 222 255 17,800 840 Climbing Seattle Center
03:51PM 41.6433 -122.9036 181° South 216 249 18,700 840 Climbing Seattle Center
03:52PM 41.5831 -122.9028 179° South 215 247 19,600 780 Climbing Seattle Center
03:54PM 41.5222 -122.9014 179° South 218 251 20,300 780 Climbing Seattle Center
03:55PM 41.4492 -122.9006 180° South 220 253 21,200 780 Climbing Seattle Center
03:56PM 41.3892 -122.9000 180° South 218 251 21,900 600 Climbing Seattle Center
03:57PM 41.3358 -122.9014 181° South 218 251 22,500 540 Climbing Seattle Center
03:58PM 41.2761 -122.9008 180° South 216 249 23,000 240 Climbing Seattle Center
03:59PM 41.1978 -122.9014 180° South 229 264 23,000  Level Seattle Center
04:00PM 41.1292 -122.8986 178° South 240 276 23,000  Level Seattle Center
04:01PM 41.0586 -122.8978 179° South 249 287 23,000  Level Seattle Center
04:02PM 40.9875 -122.8989 181° South 255 293 23,000  Level Seattle Center
04:03PM 40.9164 -122.8967 179° South 256 295 23,000  Level Seattle Center
04:04PM 40.8456 -122.8969 180° South 257 296 23,000  Level Oakland Center
04:05PM 40.7733 -122.8958 179° South 259 298 23,000  Level Oakland Center
04:06PM 40.7017 -122.8950 179° South 259 298 23,000  Level Oakland Center
04:07PM 40.6297 -122.8942 179° South 259 298 23,000  Level Oakland Center
04:08PM 40.5439 -122.8933 180° South 257 296 23,000  Level Oakland Center
04:09PM 40.4717 -122.8925 179° South 258 297 23,000  Level Oakland Center
04:10PM 40.3994 -122.8925 180° South 260 299 23,000  Level Oakland Center
04:11PM 40.3269 -122.8914 179° South 261 300 23,000  Level Oakland Center
04:12PM 40.2544 -122.8906 179° South 262 302 23,000  Level Oakland Center
04:13PM 40.1817 -122.8894 179° South 263 303 23,000  Level Oakland Center
04:14PM 40.1089 -122.8886 179° South 263 303 23,000  Level Oakland Center
04:15PM 40.0219 -122.8875 179° South 262 302 23,000  Level Oakland Center
04:16PM 39.9506 -122.8867 179° South 259 298 23,000  Level Oakland Center
04:17PM 39.8786 -122.8858 179° South 259 298 23,000  Level Oakland Center
04:18PM 39.8050 -122.8844 179° South 264 304 23,000  Level Oakland Center
04:19PM 39.7322 -122.8853 181° South 261 300 23,000  Level Oakland Center
04:20PM 39.6594 -122.8828 178° South 262 302 23,000  Level Oakland Center
04:21PM 39.5869 -122.8825 180° South 263 303 23,000  Level Oakland Center
04:22PM 39.5139 -122.8819 180° South 262 302 23,000  Level Oakland Center
04:23PM 39.4283 -122.8794 179° South 255 293 23,000  Level Oakland Center
04:24PM 39.3564 -122.8764 178° South 259 298 23,000  Level Oakland Center
04:25PM 39.2828 -122.8767 180° South 263 303 23,000  Level Oakland Center
04:26PM 39.2086 -122.8769 180° South 267 307 23,000  Level Oakland Center
04:27PM 39.1344 -122.8772 180° South 267 307 23,000  Level Oakland Center
04:28PM 39.0617 -122.8758 179° South 264 304 23,000  Level Oakland Center
04:29PM 38.9883 -122.8747 179° South 265 305 23,000  Level Oakland Center
04:30PM 38.9133 -122.8756 180° South 269 310 23,000  Level Oakland Center
04:31PM 38.8242 -122.8739 179° South 268 308 23,000  Level Oakland Center
04:32PM 38.7506 -122.8739 180° South 266 306 23,000  Level Oakland Center
04:33PM 38.6747 -122.8725 179° South 271 312 23,000  Level Oakland Center
04:34PM 38.6008 -122.8725 180° South 265 305 23,000 -180 Level Oakland Center
04:35PM 38.5231 -122.8733 180° South 277 319 22,700 -1,080 Descending Oakland Center
04:36PM 38.4539 -122.8731 180° South 258 297 20,900 -1,860 Descending Oakland Center
04:37PM 38.3806 -122.8708 179° South 260 299 19,000 -1,860 Descending Oakland Center
04:39PM 38.3011 -122.8714 180° South 278 320 17,200 -2,280 Descending Oakland Center
04:40PM 38.2058 -122.8706 180° South 286 329 14,400 -2,880 Descending Oakland Center
04:41PM 38.1269 -122.8711 180° South 286 329 11,400 -2,520 Descending Oakland Center
04:42PM 38.0597 -122.8394 160° South 279 321 9,300 -2,040 Descending Oakland Center
04:43PM 38.0208 -122.7633 123° Southeast 260 299 7,300 -1,140 Descending Oakland Center
04:44PM 37.9636 -122.7294 155° Southeast 226 260 7,000 -180 Descending Oakland Center
04:45PM 37.9106 -122.6989 156° South 213 245 7,000  Level Oakland Center
04:46PM 37.8553 -122.6406 140° Southeast 221 254 7,000  Level Oakland Center
04:47PM 37.8000 -122.5667 133° Southeast 211 243 7,000  Level Northern Cal TRACON
04:48PM 37.7500 -122.5167 142° Southeast 209 241 7,000 -300 Level Northern Cal TRACON
04:49PM 37.7167 -122.4833 142° Southeast 207 238 6,500 -900 Descending Northern Cal TRACON
04:50PM 37.6667 -122.4333 142° Southeast 199 229 5,300 -1,200 Descending Northern Cal TRACON
04:51PM 37.6333 -122.3833 130° Southeast 196 226 4,200 -660 Descending Northern Cal TRACON
04:52PM 37.5833 -122.3500 152° Southeast 193 222 4,000 -120 Descending Northern Cal TRACON
04:53PM 37.5333 -122.3167 152° Southeast 189 217 4,000  Level Northern Cal TRACON
04:54PM 37.5000 -122.2667 130° Southeast 199 229 4,000 -60 Level Northern Cal TRACON
04:55PM 37.4833 -122.2000 107° East 200 230 3,900 -480 Descending Northern Cal TRACON
04:56PM 37.5167 -122.1833 22° Northeast 219 252 3,200 -720 Descending Northern Cal TRACON
04:57PM 37.5667 -122.2333 322° Northwest 170 196 2,500 -660 Descending Northern Cal TRACON